Time;durP1;ratioP1;P1;durP2;ratioP2;P2;SDS_P1;SDS_P2;PMS_P1;PMS_P2;Temp;Humidity;BMP_temperature;BMP_pressure;BME280_temperature;BME280_humidity;BME280_pressure;Samples;Min_cycle;Max_cycle;Signal;HPM_P1;HPM_P2
2021/12/12 00:01:12;;;;;;;98.72;42.25;;;5.10;99.90;;;;;;4985746;28;20645;-83
2021/12/12 00:03:46;;;;;;;93.60;42.33;;;5.10;99.90;;;;;;4988962;28;20041;-83
2021/12/12 00:06:16;;;;;;;97.00;43.78;;;5.10;99.90;;;;;;4996484;28;20034;-83
2021/12/12 00:08:45;;;;;;;105.35;42.63;;;5.10;99.90;;;;;;4988857;28;20041;-82
2021/12/12 00:11:15;;;;;;;96.30;44.22;;;5.20;99.90;;;;;;4992642;28;20056;-83
2021/12/12 00:13:55;;;;;;;89.70;41.15;;;5.10;99.90;;;;;;4993669;28;20045;-83
2021/12/12 00:16:21;;;;;;;84.70;40.20;;;5.20;99.90;;;;;;4985074;28;20195;-83
2021/12/12 00:18:47;;;;;;;95.28;42.95;;;5.10;99.90;;;;;;5001594;28;20508;-83
2021/12/12 00:21:16;;;;;;;95.32;42.33;;;5.20;99.90;;;;;;4999406;28;20037;-82
2021/12/12 00:23:42;;;;;;;98.35;42.08;;;5.10;99.90;;;;;;4986454;28;20108;-83
2021/12/12 00:26:11;;;;;;;87.43;39.97;;;5.20;99.90;;;;;;4985922;28;20045;-83
2021/12/12 00:28:37;;;;;;;87.78;39.97;;;5.20;99.90;;;;;;5002394;28;20041;-83
2021/12/12 00:31:10;;;;;;;82.47;39.05;;;5.20;99.90;;;;;;5001280;28;20037;-82
2021/12/12 00:33:47;;;;;;;90.72;41.72;;;5.10;99.90;;;;;;4998204;28;20501;-82
2021/12/12 00:36:17;;;;;;;85.45;40.38;;;5.20;99.90;;;;;;4997171;28;20096;-83
2021/12/12 00:38:46;;;;;;;88.90;40.65;;;5.10;99.90;;;;;;4986147;28;20022;-83
2021/12/12 00:41:15;;;;;;;79.35;40.13;;;5.20;99.90;;;;;;4999223;28;20033;-83
2021/12/12 00:43:47;;;;;;;80.75;40.13;;;5.10;99.90;;;;;;5002702;28;20037;-83
2021/12/12 00:46:16;;;;;;;94.28;41.45;;;5.20;99.90;;;;;;5000855;28;20092;-83
2021/12/12 00:48:44;;;;;;;92.63;41.10;;;5.20;99.90;;;;;;5000602;28;20033;-82
2021/12/12 00:51:14;;;;;;;85.93;38.90;;;5.10;99.90;;;;;;4982065;28;20033;-82
2021/12/12 00:53:42;;;;;;;87.40;39.95;;;5.30;99.90;;;;;;4998864;28;20429;-83
2021/12/12 00:56:08;;;;;;;84.43;40.08;;;5.10;99.90;;;;;;4982883;28;20034;-83
2021/12/12 00:58:34;;;;;;;86.68;40.17;;;5.20;99.90;;;;;;4997386;28;20057;-82
2021/12/12 01:01:19;;;;;;;82.78;38.70;;;5.20;99.90;;;;;;4998558;28;20477;-82
2021/12/12 01:03:52;;;;;;;86.32;39.90;;;5.30;99.90;;;;;;4983189;28;20476;-83
2021/12/12 01:06:20;;;;;;;79.47;38.40;;;5.20;99.90;;;;;;4982332;28;20040;-83
2021/12/12 01:08:46;;;;;;;88.18;39.83;;;5.20;99.90;;;;;;4999996;28;20030;-83
2021/12/12 01:11:27;;;;;;;76.85;36.90;;;5.20;99.90;;;;;;5004295;28;20137;-83
2021/12/12 01:13:56;;;;;;;86.88;40.88;;;5.20;99.90;;;;;;4984454;28;20138;-83
2021/12/12 01:16:26;;;;;;;80.43;39.45;;;5.20;99.90;;;;;;4985257;28;20137;-82
2021/12/12 01:19:05;;;;;;;85.75;38.75;;;5.20;99.90;;;;;;5018256;28;20456;-83
2021/12/12 01:21:35;;;;;;;82.93;40.25;;;5.20;99.90;;;;;;4997708;28;20048;-82
2021/12/12 01:24:09;;;;;;;80.68;36.83;;;5.20;99.90;;;;;;5002046;28;20042;-82
2021/12/12 01:26:36;;;;;;;82.47;38.63;;;5.20;99.90;;;;;;5000104;28;20092;-83
2021/12/12 01:29:06;;;;;;;77.90;39.15;;;5.30;99.90;;;;;;4984414;28;20338;-83
2021/12/12 01:31:36;;;;;;;88.18;40.67;;;5.30;99.90;;;;;;5000823;28;20267;-83
2021/12/12 01:34:12;;;;;;;83.22;39.10;;;5.20;99.90;;;;;;5002059;28;20066;-83
2021/12/12 01:36:53;;;;;;;75.68;38.28;;;5.20;99.90;;;;;;5001193;28;20512;-82
2021/12/12 01:39:22;;;;;;;81.03;39.25;;;5.30;99.90;;;;;;4999107;28;20026;-83
2021/12/12 01:41:51;;;;;;;80.88;38.15;;;5.30;99.90;;;;;;4981807;28;20053;-83
2021/12/12 01:44:40;;;;;;;82.80;39.28;;;5.20;99.90;;;;;;4984593;28;20131;-83
2021/12/12 01:47:31;;;;;;;85.13;39.30;;;5.30;99.90;;;;;;4996982;28;20054;-82
2021/12/12 01:50:01;;;;;;;85.78;37.08;;;5.30;99.90;;;;;;4997741;28;20034;-83
2021/12/12 01:52:30;;;;;;;85.60;38.70;;;5.30;99.90;;;;;;4985627;28;20049;-83
2021/12/12 01:55:04;;;;;;;89.30;38.28;;;5.20;99.90;;;;;;5000822;28;20521;-83
2021/12/12 01:57:37;;;;;;;82.28;38.22;;;5.20;99.90;;;;;;4983920;28;20038;-83
2021/12/12 02:00:31;;;;;;;78.80;36.85;;;5.30;99.90;;;;;;4999980;28;20116;-83
2021/12/12 02:03:01;;;;;;;75.63;36.33;;;5.40;99.90;;;;;;4999941;28;20077;-83
2021/12/12 02:05:28;;;;;;;88.13;37.85;;;5.40;99.90;;;;;;4996440;28;20053;-83
2021/12/12 02:08:02;;;;;;;90.20;38.30;;;5.30;99.90;;;;;;4985670;28;20092;-83
2021/12/12 02:10:35;;;;;;;89.55;38.38;;;5.30;99.90;;;;;;5001306;28;20373;-83
2021/12/12 02:13:08;;;;;;;86.63;38.07;;;5.40;99.90;;;;;;4985104;28;20026;-83
2021/12/12 02:15:36;;;;;;;82.25;37.55;;;5.30;99.90;;;;;;5000271;28;20292;-83
2021/12/12 02:18:10;;;;;;;88.03;40.65;;;5.40;99.90;;;;;;4993720;28;20056;-83
2021/12/12 02:20:43;;;;;;;87.70;37.67;;;5.30;99.90;;;;;;4997346;28;20034;-83
2021/12/12 02:23:48;;;;;;;71.57;35.53;;;5.40;99.90;;;;;;5000132;28;20053;-83
2021/12/12 02:37:23;;;;;;;76.07;36.53;;;5.50;99.90;;;;;;4999912;28;20500;-82
2021/12/12 02:39:49;;;;;;;91.53;37.28;;;5.40;99.90;;;;;;4981766;28;20763;-83
2021/12/12 02:42:18;;;;;;;83.28;37.63;;;5.40;99.90;;;;;;4995771;28;20053;-83
2021/12/12 02:44:45;;;;;;;74.80;37.08;;;5.40;99.90;;;;;;4999449;28;20490;-83
2021/12/12 02:47:17;;;;;;;99.78;38.35;;;5.40;99.90;;;;;;4985167;28;20393;-83
2021/12/12 02:52:24;;;;;;;90.57;37.38;;;5.50;99.90;;;;;;4999001;28;20326;-83
2021/12/12 02:54:50;;;;;;;84.15;35.80;;;5.40;99.90;;;;;;4996777;28;20057;-83
2021/12/12 02:57:17;;;;;;;78.72;34.55;;;5.50;99.90;;;;;;5016874;28;20042;-83
2021/12/12 02:59:50;;;;;;;73.05;32.83;;;5.50;99.90;;;;;;4983014;28;20076;-83
2021/12/12 03:02:39;;;;;;;71.55;32.65;;;5.50;99.90;;;;;;4981547;28;20052;-83
2021/12/12 03:05:07;;;;;;;79.80;33.53;;;5.50;99.90;;;;;;4980927;28;20037;-83
2021/12/12 03:07:33;;;;;;;65.80;32.55;;;5.50;99.90;;;;;;4983789;28;20045;-83
2021/12/12 03:09:59;;;;;;;72.03;32.75;;;5.60;99.90;;;;;;4983212;28;20350;-83
2021/12/12 03:12:33;;;;;;;68.30;31.20;;;5.60;99.90;;;;;;4984096;28;20160;-82
2021/12/12 03:15:08;;;;;;;69.30;32.43;;;5.60;99.90;;;;;;4998203;28;20447;-83
2021/12/12 03:17:35;;;;;;;66.25;30.75;;;5.60;99.90;;;;;;4982098;28;20645;-83
2021/12/12 03:20:09;;;;;;;78.85;32.50;;;5.70;99.90;;;;;;5012239;28;20045;-83
2021/12/12 03:22:35;;;;;;;;;;;5.70;99.90;;;;;;4984204;28;20551;-83
2021/12/12 03:25:01;;;;;;;56.08;28.38;;;5.70;99.90;;;;;;4981949;28;20025;-83
2021/12/12 03:27:27;;;;;;;57.00;28.83;;;5.80;99.90;;;;;;4984388;28;20083;-82
2021/12/12 03:29:55;;;;;;;57.47;28.13;;;5.70;99.90;;;;;;4997392;28;20034;-83
2021/12/12 03:32:23;;;;;;;59.90;29.23;;;5.80;99.90;;;;;;4984055;28;20044;-83
2021/12/12 03:34:54;;;;;;;73.75;30.05;;;5.80;99.90;;;;;;5011080;28;20385;-83
2021/12/12 03:37:23;;;;;;;70.30;28.88;;;5.90;99.90;;;;;;4993199;28;20100;-83
2021/12/12 03:39:54;;;;;;;62.58;30.20;;;5.90;99.90;;;;;;4981570;28;20045;-83
2021/12/12 03:42:25;;;;;;;55.78;26.60;;;5.90;99.90;;;;;;4980708;28;20053;-83
2021/12/12 03:44:52;;;;;;;53.20;26.98;;;5.90;99.90;;;;;;4995922;28;20038;-83
2021/12/12 03:47:23;;;;;;;45.95;24.35;;;5.90;99.90;;;;;;4998615;28;20038;-83
2021/12/12 03:49:49;;;;;;;62.72;26.58;;;6.00;99.90;;;;;;4992491;28;20045;-83
2021/12/12 03:52:17;;;;;;;52.25;24.42;;;6.00;99.90;;;;;;4998166;28;20924;-83
2021/12/12 03:54:43;;;;;;;41.45;22.25;;;6.10;99.90;;;;;;4981925;28;20501;-83
2021/12/12 03:57:09;;;;;;;42.08;21.50;;;6.10;99.90;;;;;;4998450;28;20440;-83
2021/12/12 03:59:35;;;;;;;52.30;25.13;;;6.20;99.90;;;;;;4998646;28;20042;-83
2021/12/12 04:02:01;;;;;;;44.35;23.63;;;6.10;99.90;;;;;;4980793;28;20046;-83
2021/12/12 04:04:36;;;;;;;51.80;25.33;;;6.10;99.90;;;;;;5005539;28;20137;-83
2021/12/12 04:07:09;;;;;;;41.35;22.67;;;6.10;99.90;;;;;;4999155;28;20030;-83
2021/12/12 04:09:35;;;;;;;57.65;24.95;;;6.10;99.90;;;;;;4981186;28;20041;-84
2021/12/12 04:12:05;;;;;;;38.55;22.15;;;6.10;99.90;;;;;;4993438;28;20042;-83
2021/12/12 04:14:30;;;;;;;45.25;23.50;;;6.00;99.90;;;;;;4981903;28;20072;-83
2021/12/12 04:17:00;;;;;;;42.08;22.90;;;6.00;99.90;;;;;;4977547;28;20078;-83
2021/12/12 04:19:26;;;;;;;37.75;21.13;;;6.10;99.90;;;;;;4990578;28;20380;-83
2021/12/12 04:21:55;;;;;;;40.25;21.73;;;6.20;99.90;;;;;;4998235;28;20069;-83
2021/12/12 04:24:25;;;;;;;40.92;21.95;;;6.10;99.90;;;;;;4991200;28;20042;-83
2021/12/12 04:26:52;;;;;;;41.75;21.65;;;6.10;99.90;;;;;;4989918;28;20437;-83
2021/12/12 04:29:26;;;;;;;38.40;20.58;;;6.10;99.90;;;;;;4980762;28;20050;-83
2021/12/12 04:31:56;;;;;;;30.42;19.60;;;6.20;99.90;;;;;;4995282;28;20038;-83
2021/12/12 04:34:25;;;;;;;34.72;19.98;;;6.10;99.90;;;;;;4982132;28;20046;-83
2021/12/12 04:36:52;;;;;;;34.55;18.67;;;6.10;99.90;;;;;;4996574;28;20030;-83
2021/12/12 04:39:31;;;;;;;32.70;19.75;;;6.20;99.90;;;;;;4980964;28;20589;-83
2021/12/12 04:42:12;;;;;;;28.20;18.65;;;6.20;99.90;;;;;;5000964;28;20195;-83
2021/12/12 04:44:40;;;;;;;31.05;17.95;;;6.20;99.90;;;;;;4984800;28;20041;-84
2021/12/12 04:50:21;;;;;;;30.75;17.92;;;6.20;99.90;;;;;;4998404;28;20045;-83
2021/12/12 04:53:06;;;;;;;36.60;19.80;;;6.20;99.90;;;;;;4986992;28;20124;-83
2021/12/12 04:55:41;;;;;;;27.40;18.02;;;6.20;99.90;;;;;;5001745;28;20493;-83
2021/12/12 04:58:20;;;;;;;28.08;17.13;;;6.10;99.90;;;;;;4999720;28;20508;-83
2021/12/12 05:00:59;;;;;;;26.23;16.75;;;6.20;99.90;;;;;;5001280;28;20042;-83
2021/12/12 05:03:45;;;;;;;29.45;18.27;;;6.20;99.90;;;;;;5013192;28;20045;-83
2021/12/12 05:06:18;;;;;;;28.73;16.52;;;6.20;99.90;;;;;;4995362;28;20046;-83
2021/12/12 05:09:07;;;;;;;28.00;16.77;;;6.20;99.90;;;;;;4996911;28;20361;-83
2021/12/12 05:11:35;;;;;;;26.67;15.98;;;6.20;99.90;;;;;;4981343;28;20096;-83
2021/12/12 05:14:13;;;;;;;26.73;15.98;;;6.20;99.90;;;;;;4998864;28;20112;-83
2021/12/12 05:16:43;;;;;;;25.65;16.80;;;6.20;99.90;;;;;;4997742;28;20121;-83
2021/12/12 05:19:15;;;;;;;23.05;15.52;;;6.20;99.90;;;;;;4997289;28;20061;-83
2021/12/12 05:21:49;;;;;;;26.85;15.70;;;6.20;99.90;;;;;;4979863;28;20762;-83
2021/12/12 05:24:21;;;;;;;22.35;15.13;;;6.20;99.90;;;;;;5015406;28;20049;-82
2021/12/12 05:26:54;;;;;;;22.00;14.65;;;6.20;99.90;;;;;;4997784;28;20049;-83
2021/12/12 05:29:48;;;;;;;24.63;15.65;;;6.20;99.90;;;;;;4998318;28;20038;-83
2021/12/12 05:32:15;;;;;;;22.90;14.82;;;6.30;99.90;;;;;;4968166;28;20171;-83
2021/12/12 05:34:49;;;;;;;23.88;15.50;;;6.30;99.90;;;;;;5012167;28;20097;-83
2021/12/12 05:37:16;;;;;;;24.67;14.75;;;6.30;99.90;;;;;;4997350;28;20455;-83
2021/12/12 05:39:50;;;;;;;20.98;14.63;;;6.20;99.90;;;;;;4997242;28;20383;-83
2021/12/12 05:42:17;;;;;;;23.63;15.60;;;6.30;99.90;;;;;;4997108;28;20061;-83
2021/12/12 05:44:44;;;;;;;20.98;14.25;;;6.30;99.90;;;;;;4997208;28;20471;-83
2021/12/12 05:47:11;;;;;;;25.30;14.55;;;6.40;99.90;;;;;;4982569;28;20053;-83
2021/12/12 05:49:38;;;;;;;21.08;14.40;;;6.30;99.90;;;;;;4990752;28;20038;-83
2021/12/12 05:52:11;;;;;;;25.23;15.32;;;6.40;99.90;;;;;;4994614;28;20040;-83
2021/12/12 05:54:39;;;;;;;23.17;14.52;;;6.40;99.90;;;;;;4989113;28;20121;-83
2021/12/12 05:57:09;;;;;;;25.63;14.88;;;6.40;99.90;;;;;;4977222;28;20078;-83
2021/12/12 05:59:35;;;;;;;23.70;15.27;;;6.40;99.90;;;;;;4974355;28;20053;-83
2021/12/12 06:02:04;;;;;;;22.10;14.90;;;6.40;99.90;;;;;;4976216;28;20514;-83
2021/12/12 06:04:30;;;;;;;22.98;15.10;;;6.40;99.90;;;;;;4973304;28;20477;-83
2021/12/12 06:06:57;;;;;;;22.88;14.70;;;6.40;99.90;;;;;;4977754;28;20539;-83
2021/12/12 06:09:23;;;;;;;22.92;15.70;;;6.50;99.90;;;;;;4976840;28;20054;-83
2021/12/12 06:11:51;;;;;;;21.33;14.65;;;6.50;99.90;;;;;;4976196;28;20090;-83
2021/12/12 06:14:18;;;;;;;21.00;14.32;;;6.50;99.90;;;;;;4978148;28;20111;-83
2021/12/12 06:16:45;;;;;;;21.40;13.95;;;6.50;99.90;;;;;;4961157;28;20092;-83
2021/12/12 06:19:17;;;;;;;22.15;14.40;;;6.50;99.90;;;;;;4978765;28;20046;-83
2021/12/12 06:21:43;;;;;;;22.40;13.88;;;6.60;99.90;;;;;;4971994;28;20096;-83
2021/12/12 06:24:10;;;;;;;23.10;14.13;;;6.60;99.90;;;;;;4976051;28;20073;-83
2021/12/12 06:26:37;;;;;;;23.67;15.02;;;6.60;99.90;;;;;;4961400;28;20061;-83
2021/12/12 06:29:05;;;;;;;19.42;13.50;;;6.70;99.90;;;;;;4976937;28;20522;-83
2021/12/12 06:31:31;;;;;;;20.67;13.70;;;6.60;99.90;;;;;;4956937;28;20039;-83
2021/12/12 06:33:57;;;;;;;20.67;13.25;;;6.70;99.90;;;;;;4958379;28;20133;-83
2021/12/12 06:36:24;;;;;;;21.92;14.23;;;6.70;99.90;;;;;;4974055;28;20046;-83
2021/12/12 06:38:54;;;;;;;21.98;14.07;;;6.70;99.90;;;;;;4974939;28;20057;-83
2021/12/12 06:41:21;;;;;;;19.90;14.02;;;6.70;99.90;;;;;;4988003;28;20120;-83
2021/12/12 06:43:48;;;;;;;21.45;13.25;;;6.70;99.90;;;;;;4960138;28;20045;-83
2021/12/12 06:46:14;;;;;;;19.83;13.73;;;6.70;99.90;;;;;;4974446;28;20034;-83
2021/12/12 06:48:41;;;;;;;23.55;15.60;;;6.80;99.90;;;;;;4973599;28;20104;-83
2021/12/12 06:51:09;;;;;;;25.65;15.73;;;6.80;99.90;;;;;;4971867;28;20065;-83
2021/12/12 06:53:39;;;;;;;22.48;14.38;;;6.70;99.90;;;;;;4980151;28;20137;-84
2021/12/12 06:56:06;;;;;;;24.77;15.02;;;6.80;99.90;;;;;;4978488;28;20091;-83
2021/12/12 06:58:32;;;;;;;29.60;16.02;;;6.80;99.90;;;;;;4995337;28;20155;-84
2021/12/12 07:01:04;;;;;;;20.27;13.60;;;6.70;99.90;;;;;;4993379;28;20112;-83
2021/12/12 07:03:31;;;;;;;19.48;13.82;;;6.80;99.90;;;;;;5011747;28;20072;-83
2021/12/12 07:06:00;;;;;;;23.80;14.40;;;6.80;99.90;;;;;;4991364;28;20056;-83
2021/12/12 07:08:26;;;;;;;21.98;14.15;;;6.90;99.90;;;;;;4980192;28;20651;-83
2021/12/12 07:10:52;;;;;;;23.33;15.32;;;6.80;99.90;;;;;;4992898;28;20034;-83
2021/12/12 07:13:18;;;;;;;21.45;14.35;;;6.90;99.90;;;;;;4995722;28;20042;-83
2021/12/12 07:15:50;;;;;;;23.67;14.48;;;6.90;99.90;;;;;;4993252;28;20046;-83
2021/12/12 07:18:19;;;;;;;25.05;16.50;;;6.90;99.90;;;;;;4995467;28;20053;-83
2021/12/12 07:20:53;;;;;;;25.13;15.07;;;6.90;99.90;;;;;;5006591;28;20057;-83
2021/12/12 07:23:20;;;;;;;22.08;14.70;;;6.90;99.90;;;;;;4978519;28;20117;-83
2021/12/12 07:25:47;;;;;;;22.92;13.90;;;7.00;99.90;;;;;;4993160;28;20057;-83
2021/12/12 07:28:14;;;;;;;19.48;13.40;;;7.00;99.90;;;;;;4996430;28;20042;-83
2021/12/12 07:30:43;;;;;;;21.05;14.32;;;7.00;99.90;;;;;;4994702;28;20061;-83
2021/12/12 07:33:10;;;;;;;24.15;15.32;;;7.00;99.90;;;;;;4979592;28;20034;-83
2021/12/12 07:35:39;;;;;;;24.63;14.27;;;7.10;99.90;;;;;;4993304;28;20030;-84
2021/12/12 07:38:11;;;;;;;24.23;14.68;;;7.10;99.90;;;;;;4998145;28;20091;-83
2021/12/12 07:40:37;;;;;;;21.60;13.85;;;7.10;99.90;;;;;;4978075;28;20710;-83
2021/12/12 07:43:04;;;;;;;20.65;14.05;;;7.10;99.90;;;;;;4977979;28;20117;-83
2021/12/12 07:45:31;;;;;;;23.75;14.82;;;7.20;99.90;;;;;;4994190;28;20103;-83
2021/12/12 07:47:57;;;;;;;25.33;14.68;;;7.20;99.90;;;;;;4979971;28;20587;-83
2021/12/12 07:50:28;;;;;;;18.23;12.05;;;7.20;99.90;;;;;;5008316;28;20072;-83
2021/12/12 07:52:55;;;;;;;24.95;15.23;;;7.30;99.90;;;;;;4994103;28;20033;-83
2021/12/12 07:55:22;;;;;;;26.48;15.02;;;7.20;99.90;;;;;;4980640;28;20049;-83
2021/12/12 07:57:48;;;;;;;25.63;15.30;;;7.20;99.90;;;;;;4980113;28;20076;-83
2021/12/12 08:00:17;;;;;;;23.67;14.68;;;7.30;99.90;;;;;;5010519;28;20124;-82
2021/12/12 08:02:45;;;;;;;27.45;15.55;;;7.30;99.90;;;;;;4981759;28;20464;-83
2021/12/12 08:05:13;;;;;;;28.80;16.10;;;7.30;99.90;;;;;;4971123;28;20045;-83
2021/12/12 08:07:43;;;;;;;31.63;16.35;;;7.30;99.90;;;;;;4995903;28;20029;-83
2021/12/12 08:10:14;;;;;;;25.80;15.27;;;7.40;99.90;;;;;;4995702;28;20042;-83
2021/12/12 08:12:43;;;;;;;27.23;16.35;;;7.40;99.90;;;;;;4996509;28;20041;-83
2021/12/12 08:15:11;;;;;;;29.58;16.33;;;7.40;99.90;;;;;;4996521;28;20053;-83
2021/12/12 08:17:42;;;;;;;31.52;17.55;;;7.40;99.90;;;;;;4985912;28;20037;-83
2021/12/12 08:20:09;;;;;;;26.70;15.65;;;7.50;99.90;;;;;;4979160;28;20041;-83
2021/12/12 08:22:38;;;;;;;27.25;16.05;;;7.50;99.90;;;;;;4999098;28;20040;-84
2021/12/12 08:25:07;;;;;;;27.45;16.25;;;7.60;99.90;;;;;;4986726;28;20037;-84
2021/12/12 08:27:33;;;;;;;32.95;16.90;;;7.60;99.90;;;;;;4995639;28;20590;-84
2021/12/12 08:29:59;;;;;;;31.05;17.27;;;7.70;99.90;;;;;;5002176;28;20037;-84
2021/12/12 08:32:26;;;;;;;29.80;16.92;;;7.70;99.90;;;;;;4995960;28;20038;-83
2021/12/12 08:34:52;;;;;;;30.23;16.70;;;7.60;99.90;;;;;;5000045;28;20505;-83
2021/12/12 08:37:18;;;;;;;30.92;17.27;;;7.70;99.90;;;;;;5002099;28;20033;-84
2021/12/12 08:39:45;;;;;;;31.27;16.83;;;7.70;99.90;;;;;;5001411;28;20037;-83
2021/12/12 08:42:12;;;;;;;27.73;16.55;;;7.70;99.90;;;;;;4987102;28;20037;-83
2021/12/12 08:44:39;;;;;;;26.38;16.45;;;7.70;99.90;;;;;;4982516;28;20044;-83
2021/12/12 08:47:07;;;;;;;33.85;18.95;;;7.80;99.90;;;;;;5014270;28;20157;-83
2021/12/12 08:49:34;;;;;;;30.55;17.67;;;7.90;99.90;;;;;;4999753;28;20077;-83
2021/12/12 08:52:09;;;;;;;31.77;17.63;;;7.90;99.90;;;;;;4985268;28;20163;-83
2021/12/12 08:54:39;;;;;;;27.50;16.40;;;7.90;99.90;;;;;;4985524;28;20187;-84
2021/12/12 08:57:10;;;;;;;30.33;17.35;;;8.00;99.90;;;;;;4985485;28;20263;-83
2021/12/12 08:59:43;;;;;;;36.42;18.15;;;8.00;99.90;;;;;;4967103;28;20091;-83
2021/12/12 09:02:16;;;;;;;32.58;17.33;;;8.00;99.90;;;;;;4982328;28;20140;-83
2021/12/12 09:04:48;;;;;;;35.85;18.67;;;8.10;99.90;;;;;;4998053;28;20046;-83
2021/12/12 09:07:24;;;;;;;38.03;19.27;;;8.10;99.90;;;;;;5001534;28;20045;-83
2021/12/12 09:10:00;;;;;;;38.22;18.67;;;8.10;99.90;;;;;;5017838;28;20037;-84
2021/12/12 09:12:35;;;;;;;42.33;19.77;;;8.20;99.90;;;;;;5002899;28;20037;-83
2021/12/12 09:15:19;;;;;;;40.45;19.92;;;8.30;99.90;;;;;;4997501;28;20372;-84
2021/12/12 09:18:09;;;;;;;40.55;19.63;;;8.30;99.90;;;;;;5003972;28;20158;-83
2021/12/12 09:20:48;;;;;;;41.20;19.75;;;8.20;99.90;;;;;;5002288;28;20046;-83
2021/12/12 09:23:49;;;;;;;40.65;19.83;;;8.30;99.90;;;;;;4984563;28;20053;-83
2021/12/12 09:26:23;;;;;;;43.58;20.77;;;8.30;99.90;;;;;;4986843;28;20065;-83
2021/12/12 09:29:01;;;;;;;48.90;21.92;;;8.30;99.90;;;;;;5017168;28;20521;-83
2021/12/12 09:31:40;;;;;;;45.42;20.60;;;8.40;99.90;;;;;;4987316;28;20041;-83
2021/12/12 09:34:16;;;;;;;44.30;21.00;;;8.40;99.90;;;;;;4987985;28;20173;-83
2021/12/12 09:36:58;;;;;;;46.97;20.52;;;8.50;99.90;;;;;;4985592;28;20048;-83
2021/12/12 09:39:32;;;;;;;46.47;21.25;;;8.60;99.90;;;;;;4985715;28;20050;-84
2021/12/12 09:42:19;;;;;;;57.63;23.95;;;8.60;99.90;;;;;;5000096;28;20083;-83
2021/12/12 09:45:11;;;;;;;57.95;23.70;;;8.60;99.90;;;;;;4999507;28;20479;-83
2021/12/12 09:48:00;;;;;;;59.70;23.70;;;8.60;99.90;;;;;;5000104;28;20041;-83
2021/12/12 09:51:16;;;;;;;60.10;24.95;;;8.70;99.90;;;;;;4981957;28;20026;-84
2021/12/12 09:54:13;;;;;;;71.57;26.98;;;8.70;99.90;;;;;;4926779;28;20069;-82
2021/12/12 09:57:19;;;;;;;69.93;26.25;;;8.70;99.90;;;;;;4999588;28;20490;-83
2021/12/12 09:59:54;;;;;;;59.45;24.33;;;8.80;99.90;;;;;;4998726;28;20072;-83
2021/12/12 10:02:44;;;;;;;63.88;25.55;;;8.80;99.90;;;;;;4999994;28;20141;-83
2021/12/12 10:05:23;;;;;;;68.78;26.38;;;8.90;99.90;;;;;;4997347;28;20511;-83
2021/12/12 10:08:22;;;;;;;68.78;28.92;;;8.90;99.90;;;;;;5001297;28;20431;-83
2021/12/12 10:11:05;;;;;;;57.50;24.70;;;8.90;99.90;;;;;;4997338;28;20072;-84
2021/12/12 10:13:38;;;;;;;65.90;26.58;;;8.90;99.90;;;;;;4997008;28;20032;-83
2021/12/12 10:16:20;;;;;;;85.72;30.58;;;9.00;99.90;;;;;;4984633;28;20127;-83
2021/12/12 10:19:18;;;;;;;65.70;26.90;;;9.00;99.90;;;;;;4999642;28;20057;-83
2021/12/12 10:22:13;;;;;;;64.82;25.17;;;9.00;99.90;;;;;;4997937;28;20617;-83
2021/12/12 10:24:50;;;;;;;68.70;27.05;;;9.10;99.90;;;;;;4982918;28;20037;-84
2021/12/12 10:27:42;;;;;;;69.25;26.55;;;9.10;99.90;;;;;;4994804;28;20042;-83
2021/12/12 10:30:25;;;;;;;64.30;26.10;;;9.10;99.90;;;;;;4981736;28;20509;-83
2021/12/12 10:33:12;;;;;;;67.45;26.30;;;9.10;99.90;;;;;;4983019;28;20033;-83
2021/12/12 10:35:51;;;;;;;55.92;25.77;;;9.20;99.90;;;;;;4981279;28;20042;-83
2021/12/12 10:38:36;;;;;;;55.45;24.63;;;9.20;99.90;;;;;;4984116;28;20053;-83
2021/12/12 10:41:16;;;;;;;64.15;25.38;;;9.30;99.90;;;;;;4983786;28;20037;-83
2021/12/12 10:43:56;;;;;;;60.08;24.10;;;9.30;99.90;;;;;;4998791;28;20480;-83
2021/12/12 10:46:54;;;;;;;70.07;26.65;;;9.30;99.90;;;;;;4995293;28;20041;-83
2021/12/12 10:49:43;;;;;;;72.93;27.83;;;9.40;99.90;;;;;;4948919;28;20045;-83
2021/12/12 10:52:34;;;;;;;63.90;25.95;;;9.40;99.90;;;;;;4995497;28;20355;-83
2021/12/12 10:55:30;;;;;;;70.80;26.13;;;9.40;99.90;;;;;;5007083;28;20123;-83
2021/12/12 10:58:03;;;;;;;68.13;27.35;;;9.40;99.90;;;;;;4984941;28;20115;-83
2021/12/12 11:00:33;;;;;;;61.88;26.13;;;9.40;99.90;;;;;;4982146;28;20113;-83
2021/12/12 11:03:07;;;;;;;61.70;25.13;;;9.50;99.90;;;;;;4994966;28;20049;-83
2021/12/12 11:05:58;;;;;;;73.40;26.63;;;9.50;99.90;;;;;;5000219;28;20112;-83
2021/12/12 11:08:33;;;;;;;72.05;26.83;;;9.50;99.90;;;;;;4996142;28;20098;-83
2021/12/12 11:11:00;;;;;;;65.53;25.75;;;9.60;99.90;;;;;;4981996;28;20072;-83
2021/12/12 11:13:35;;;;;;;56.63;24.40;;;9.60;99.90;;;;;;5004503;28;20438;-83
2021/12/12 11:16:13;;;;;;;68.70;27.27;;;9.70;99.90;;;;;;5013058;28;20406;-83
2021/12/12 11:18:59;;;;;;;74.88;27.55;;;9.70;99.90;;;;;;4996679;28;20047;-83
2021/12/12 11:21:44;;;;;;;51.75;23.23;;;9.70;99.90;;;;;;5012061;28;20486;-83
2021/12/12 11:24:19;;;;;;;62.30;23.80;;;9.80;99.90;;;;;;4979666;28;20513;-83
2021/12/12 11:26:58;;;;;;;55.00;24.50;;;9.80;99.90;;;;;;4997497;28;20041;-83
2021/12/12 11:29:32;;;;;;;53.35;24.30;;;9.80;99.90;;;;;;4998372;28;20036;-83
2021/12/12 11:32:14;;;;;;;58.15;23.92;;;9.90;99.90;;;;;;4983259;28;20037;-83
2021/12/12 11:34:46;;;;;;;50.53;23.42;;;9.90;99.90;;;;;;4980652;28;20170;-83
2021/12/12 11:37:33;;;;;;;47.67;22.35;;;9.90;99.90;;;;;;4982339;28;20052;-83
2021/12/12 11:40:20;;;;;;;58.75;23.55;;;9.90;99.90;;;;;;5007066;28;20048;-83
2021/12/12 11:43:04;;;;;;;51.97;22.60;;;9.90;99.90;;;;;;4997406;28;20122;-83
2021/12/12 11:45:40;;;;;;;54.15;23.13;;;10.00;99.90;;;;;;4981901;28;20628;-84
2021/12/12 11:48:27;;;;;;;53.22;22.40;;;10.00;99.90;;;;;;4982139;28;20045;-84
2021/12/12 11:51:28;;;;;;;51.00;22.90;;;10.00;99.90;;;;;;4999270;28;20038;-83
2021/12/12 11:54:02;;;;;;;43.83;20.52;;;10.00;99.90;;;;;;5014496;28;20045;-83
2021/12/12 11:56:34;;;;;;;47.75;19.98;;;10.00;99.90;;;;;;4975673;28;20488;-83
2021/12/12 11:59:19;;;;;;;39.83;19.83;;;10.00;99.90;;;;;;4988609;28;20445;-84
2021/12/12 12:01:51;;;;;;;44.13;19.35;;;10.10;99.90;;;;;;4993333;28;20041;-83
2021/12/12 12:04:32;;;;;;;45.15;20.45;;;10.00;99.90;;;;;;5013292;28;20493;-83
2021/12/12 12:07:24;;;;;;;49.13;20.38;;;10.10;99.90;;;;;;4980396;28;20459;-83
2021/12/12 12:10:30;;;;;;;41.60;19.33;;;10.10;99.90;;;;;;4965554;28;20623;-84
2021/12/12 12:13:34;;;;;;;39.30;18.27;;;10.20;99.90;;;;;;4979750;28;20117;-83
2021/12/12 12:16:24;;;;;;;42.10;20.05;;;10.20;99.90;;;;;;4993680;28;20041;-83
2021/12/12 12:19:27;;;;;;;44.63;19.23;;;10.30;99.90;;;;;;4948894;28;20053;-83
2021/12/12 12:22:08;;;;;;;39.75;18.85;;;10.30;99.90;;;;;;4981265;28;20037;-83
2021/12/12 12:24:54;;;;;;;39.47;19.70;;;10.30;99.90;;;;;;5014191;28;20364;-83
2021/12/12 12:27:35;;;;;;;46.10;20.90;;;10.40;99.90;;;;;;4994491;28;20041;-84
2021/12/12 12:30:01;;;;;;;38.70;19.65;;;10.40;99.90;;;;;;4996202;28;20808;-84
2021/12/12 12:33:04;;;;;;;37.58;18.10;;;10.40;99.90;;;;;;4982753;28;20461;-83
2021/12/12 12:36:02;;;;;;;42.63;19.20;;;10.40;99.90;;;;;;4993301;28;20118;-84
2021/12/12 12:39:06;;;;;;;36.85;18.00;;;10.50;99.90;;;;;;4996728;28;20048;-83
2021/12/12 12:41:41;;;;;;;40.15;18.17;;;10.50;99.90;;;;;;4980234;28;20135;-84
2021/12/12 12:44:44;;;;;;;40.85;17.92;;;10.40;99.90;;;;;;4980494;28;20160;-83
2021/12/12 12:47:41;;;;;;;39.50;18.38;;;10.50;99.90;;;;;;4997038;28;20551;-84
2021/12/12 12:50:44;;;;;;;40.88;19.30;;;10.40;99.90;;;;;;5012045;28;20265;-83
2021/12/12 12:53:38;;;;;;;35.58;17.33;;;10.40;99.90;;;;;;4997062;28;20112;-83
2021/12/12 12:56:07;;;;;;;38.05;17.95;;;10.50;99.90;;;;;;5011974;28;20045;-84
2021/12/12 12:58:59;;;;;;;41.25;18.50;;;10.50;99.90;;;;;;4981855;28;20038;-83
2021/12/12 13:01:46;;;;;;;35.35;17.48;;;10.50;99.90;;;;;;4997055;28;20199;-83
2021/12/12 13:04:47;;;;;;;40.17;18.38;;;10.50;99.90;;;;;;5015787;28;20037;-83
2021/12/12 13:07:40;;;;;;;33.35;16.98;;;10.60;99.90;;;;;;4999273;28;20048;-83
2021/12/12 13:10:12;;;;;;;36.30;17.60;;;10.60;99.90;;;;;;4994908;28;20815;-84
2021/12/12 13:12:38;;;;;;;37.20;17.27;;;10.60;99.90;;;;;;4998940;28;20432;-84
2021/12/12 13:15:11;;;;;;;45.88;18.90;;;10.60;99.90;;;;;;4984107;28;20099;-83
2021/12/12 13:18:09;;;;;;;44.00;19.73;;;10.60;99.90;;;;;;4993943;28;20041;-83
2021/12/12 13:21:03;;;;;;;45.67;19.90;;;10.70;99.90;;;;;;5007934;28;20220;-84
2021/12/12 13:24:07;;;;;;;50.67;20.02;;;10.70;99.90;;;;;;5000104;28;20801;-83
2021/12/12 13:27:17;;;;;;;40.50;17.92;;;10.70;99.90;;;;;;4982368;28;20092;-83
2021/12/12 13:30:04;;;;;;;43.17;19.33;;;10.80;99.90;;;;;;4976451;28;20413;-83
2021/12/12 13:32:37;;;;;;;34.78;16.98;;;10.80;99.90;;;;;;4998769;28;20037;-83